sensor_id;sensor_type;location;lat;lon;timestamp;pressure;altitude;pressure_sealevel;temperature;humidity
71774;BME280;59607;52.130;5.430;2023-08-07T00:00:56;101334.50;;;13.74;100.00
71774;BME280;59607;52.130;5.430;2023-08-07T00:03:25;101343.22;;;13.74;100.00
71774;BME280;59607;52.130;5.430;2023-08-07T00:05:54;101333.84;;;13.72;100.00
71774;BME280;59607;52.130;5.430;2023-08-07T00:08:21;101335.81;;;13.69;100.00
71774;BME280;59607;52.130;5.430;2023-08-07T00:11:03;101334.84;;;13.71;100.00
71774;BME280;59607;52.130;5.430;2023-08-07T00:13:33;101342.09;;;13.68;100.00
71774;BME280;59607;52.130;5.430;2023-08-07T00:16:00;101339.63;;;13.67;100.00
71774;BME280;59607;52.130;5.430;2023-08-07T00:18:28;101335.34;;;13.66;100.00
71774;BME280;59607;52.130;5.430;2023-08-07T00:20:59;101341.28;;;13.68;100.00
71774;BME280;59607;52.130;5.430;2023-08-07T00:23:29;101337.81;;;13.67;100.00
71774;BME280;59607;52.130;5.430;2023-08-07T00:25:56;101345.72;;;13.67;100.00
71774;BME280;59607;52.130;5.430;2023-08-07T00:28:22;101345.53;;;13.69;100.00
71774;BME280;59607;52.130;5.430;2023-08-07T00:30:53;101336.81;;;13.68;100.00
71774;BME280;59607;52.130;5.430;2023-08-07T00:33:19;101348.53;;;13.66;100.00
71774;BME280;59607;52.130;5.430;2023-08-07T00:35:51;101352.81;;;13.67;100.00
71774;BME280;59607;52.130;5.430;2023-08-07T00:38:18;101355.63;;;13.65;100.00
71774;BME280;59607;52.130;5.430;2023-08-07T00:40:45;101355.63;;;13.65;100.00
71774;BME280;59607;52.130;5.430;2023-08-07T00:43:17;101343.06;;;13.67;100.00
71774;BME280;59607;52.130;5.430;2023-08-07T00:45:50;101342.44;;;13.65;100.00
71774;BME280;59607;52.130;5.430;2023-08-07T00:48:20;101342.44;;;13.65;100.00
71774;BME280;59607;52.130;5.430;2023-08-07T00:50:48;101340.59;;;13.66;100.00
71774;BME280;59607;52.130;5.430;2023-08-07T00:53:21;101343.06;;;13.67;100.00
71774;BME280;59607;52.130;5.430;2023-08-07T00:55:48;101340.44;;;13.67;100.00
71774;BME280;59607;52.130;5.430;2023-08-07T00:58:26;101334.38;;;13.67;100.00
71774;BME280;59607;52.130;5.430;2023-08-07T01:00:52;101335.16;;;13.67;100.00
71774;BME280;59607;52.130;5.430;2023-08-07T01:03:32;101330.72;;;13.68;100.00
71774;BME280;59607;52.130;5.430;2023-08-07T01:05:59;101338.47;;;13.69;100.00
71774;BME280;59607;52.130;5.430;2023-08-07T01:08:31;101346.84;;;13.73;100.00
71774;BME280;59607;52.130;5.430;2023-08-07T01:19:44;101343.38;;;13.73;100.00
71774;BME280;59607;52.130;5.430;2023-08-07T01:22:18;101347.88;;;13.72;100.00
71774;BME280;59607;52.130;5.430;2023-08-07T01:24:46;101349.84;;;13.70;100.00
71774;BME280;59607;52.130;5.430;2023-08-07T01:27:35;101349.50;;;13.73;100.00
71774;BME280;59607;52.130;5.430;2023-08-07T01:35:31;101351.47;;;13.71;100.00
71774;BME280;59607;52.130;5.430;2023-08-07T01:38:01;101357.09;;;13.68;100.00
71774;BME280;59607;52.130;5.430;2023-08-07T01:40:32;101355.28;;;13.68;100.00
71774;BME280;59607;52.130;5.430;2023-08-07T01:43:02;101355.94;;;13.71;100.00
71774;BME280;59607;52.130;5.430;2023-08-07T01:45:32;101361.03;;;13.72;100.00
71774;BME280;59607;52.130;5.430;2023-08-07T01:48:00;101356.41;;;13.74;100.00
71774;BME280;59607;52.130;5.430;2023-08-07T01:50:33;101358.69;;;13.77;100.00
71774;BME280;59607;52.130;5.430;2023-08-07T01:53:00;101365.44;;;13.80;100.00
71774;BME280;59607;52.130;5.430;2023-08-07T01:55:31;101356.72;;;13.79;100.00
71774;BME280;59607;52.130;5.430;2023-08-07T01:58:02;101355.09;;;13.78;100.00
71774;BME280;59607;52.130;5.430;2023-08-07T02:00:29;101359.19;;;13.81;100.00
71774;BME280;59607;52.130;5.430;2023-08-07T02:02:59;101357.53;;;13.80;100.00
71774;BME280;59607;52.130;5.430;2023-08-07T02:05:25;101360.97;;;13.80;100.00
71774;BME280;59607;52.130;5.430;2023-08-07T02:59:58;101383.41;;;13.85;100.00
71774;BME280;59607;52.130;5.430;2023-08-07T03:02:25;101374.81;;;13.82;100.00
71774;BME280;59607;52.130;5.430;2023-08-07T03:04:51;101382.91;;;13.81;100.00
71774;BME280;59607;52.130;5.430;2023-08-07T03:07:18;101381.28;;;13.80;100.00
71774;BME280;59607;52.130;5.430;2023-08-07T03:09:50;101376.97;;;13.79;100.00
71774;BME280;59607;52.130;5.430;2023-08-07T03:12:17;101372.88;;;13.76;100.00
71774;BME280;59607;52.130;5.430;2023-08-07T03:14:46;101372.22;;;13.74;100.00
71774;BME280;59607;52.130;5.430;2023-08-07T03:17:13;101365.47;;;13.72;100.00
71774;BME280;59607;52.130;5.430;2023-08-07T03:19:42;101363.50;;;13.74;100.00
71774;BME280;59607;52.130;5.430;2023-08-07T03:22:12;101366.31;;;13.72;100.00
71774;BME280;59607;52.130;5.430;2023-08-07T03:24:46;101368.28;;;13.70;100.00
71774;BME280;59607;52.130;5.430;2023-08-07T03:27:19;101357.09;;;13.68;100.00
71774;BME280;59607;52.130;5.430;2023-08-07T03:29:45;101366.00;;;13.67;100.00
71774;BME280;59607;52.130;5.430;2023-08-07T03:32:15;101361.34;;;13.69;100.00
71774;BME280;59607;52.130;5.430;2023-08-07T03:34:45;101359.72;;;13.68;100.00
71774;BME280;59607;52.130;5.430;2023-08-07T03:37:13;101358.09;;;13.67;100.00
71774;BME280;59607;52.130;5.430;2023-08-07T03:39:54;101358.09;;;13.67;100.00
71774;BME280;59607;52.130;5.430;2023-08-07T03:42:32;101361.53;;;13.67;100.00
71774;BME280;59607;52.130;5.430;2023-08-07T03:44:58;101366.78;;;13.67;100.00
71774;BME280;59607;52.130;5.430;2023-08-07T03:47:25;101364.34;;;13.66;100.00
71774;BME280;59607;52.130;5.430;2023-08-07T03:49:51;101355.44;;;13.67;100.00
71774;BME280;59607;52.130;5.430;2023-08-07T03:52:19;101363.19;;;13.68;100.00
71774;BME280;59607;52.130;5.430;2023-08-07T03:54:49;101356.91;;;13.69;100.00
71774;BME280;59607;52.130;5.430;2023-08-07T03:57:15;101369.13;;;13.71;100.00
71774;BME280;59607;52.130;5.430;2023-08-07T03:59:42;101369.91;;;13.71;100.00
71774;BME280;59607;52.130;5.430;2023-08-07T04:02:08;101365.47;;;13.72;100.00
71774;BME280;59607;52.130;5.430;2023-08-07T04:04:35;101360.03;;;13.73;100.00
71774;BME280;59607;52.130;5.430;2023-08-07T04:07:05;101361.66;;;13.74;100.00
71774;BME280;59607;52.130;5.430;2023-08-07T04:09:32;101372.88;;;13.76;100.00
71774;BME280;59607;52.130;5.430;2023-08-07T04:12:05;101370.91;;;13.78;100.00
71774;BME280;59607;52.130;5.430;2023-08-07T04:14:31;101363.97;;;13.77;100.00
71774;BME280;59607;52.130;5.430;2023-08-07T04:17:01;101371.69;;;13.79;100.00
71774;BME280;59607;52.130;5.430;2023-08-07T04:19:32;101377.63;;;13.81;100.00
71774;BME280;59607;52.130;5.430;2023-08-07T04:21:58;101378.47;;;13.81;100.00
71774;BME280;59607;52.130;5.430;2023-08-07T04:24:26;101376.81;;;13.80;100.00
71774;BME280;59607;52.130;5.430;2023-08-07T04:26:52;101377.63;;;13.81;100.00
71774;BME280;59607;52.130;5.430;2023-08-07T04:29:20;101377.47;;;13.82;100.00
71774;BME280;59607;52.130;5.430;2023-08-07T04:31:51;101379.25;;;13.82;100.00
71774;BME280;59607;52.130;5.430;2023-08-07T04:34:20;101377.47;;;13.82;100.00
71774;BME280;59607;52.130;5.430;2023-08-07T04:36:47;101385.38;;;13.82;100.00
71774;BME280;59607;52.130;5.430;2023-08-07T04:39:20;101392.44;;;13.82;100.00
71774;BME280;59607;52.130;5.430;2023-08-07T04:41:48;101394.13;;;13.83;100.00
71774;BME280;59607;52.130;5.430;2023-08-07T04:44:23;101403.47;;;13.86;100.00
71774;BME280;59607;52.130;5.430;2023-08-07T04:46:50;101403.47;;;13.86;100.00
71774;BME280;59607;52.130;5.430;2023-08-07T04:49:18;101407.97;;;13.85;100.00
71774;BME280;59607;52.130;5.430;2023-08-07T04:51:45;101408.41;;;13.89;100.00
71774;BME280;59607;52.130;5.430;2023-08-07T04:54:11;101410.06;;;13.90;100.00
71774;BME280;59607;52.130;5.430;2023-08-07T04:56:41;101404.63;;;13.91;100.00
71774;BME280;59607;52.130;5.430;2023-08-07T04:59:17;101410.72;;;13.92;100.00
71774;BME280;59607;52.130;5.430;2023-08-07T05:01:51;101407.91;;;13.93;100.00
71774;BME280;59607;52.130;5.430;2023-08-07T05:04:17;101409.75;;;13.93;100.00
71774;BME280;59607;52.130;5.430;2023-08-07T05:06:44;101420.75;;;13.97;100.00
71774;BME280;59607;52.130;5.430;2023-08-07T05:09:16;101424.88;;;13.99;100.00
71774;BME280;59607;52.130;5.430;2023-08-07T05:11:43;101434.91;;;14.04;100.00
71774;BME280;59607;52.130;5.430;2023-08-07T05:14:12;101438.38;;;14.04;100.00
71774;BME280;59607;52.130;5.430;2023-08-07T05:16:42;101443.81;;;14.03;100.00
71774;BME280;59607;52.130;5.430;2023-08-07T05:19:09;101453.53;;;14.02;100.00
71774;BME280;59607;52.130;5.430;2023-08-07T05:21:58;101445.13;;;13.99;100.00
71774;BME280;59607;52.130;5.430;2023-08-07T05:24:28;101458.31;;;13.99;100.00
71774;BME280;59607;52.130;5.430;2023-08-07T05:27:08;101447.78;;;13.99;100.00
71774;BME280;59607;52.130;5.430;2023-08-07T05:29:35;101446.47;;;14.03;100.00
71774;BME280;59607;52.130;5.430;2023-08-07T05:32:12;101454.19;;;14.04;100.00
71774;BME280;59607;52.130;5.430;2023-08-07T05:34:40;101451.38;;;14.06;100.00
71774;BME280;59607;52.130;5.430;2023-08-07T05:37:12;101451.38;;;14.06;100.00
71774;BME280;59607;52.130;5.430;2023-08-07T05:39:38;101457.47;;;14.06;100.00
71774;BME280;59607;52.130;5.430;2023-08-07T05:42:07;101456.16;;;14.11;100.00
71774;BME280;59607;52.130;5.430;2023-08-07T05:44:38;101462.88;;;14.13;100.00
71774;BME280;59607;52.130;5.430;2023-08-07T05:47:11;101463.56;;;14.15;100.00
71774;BME280;59607;52.130;5.430;2023-08-07T05:49:38;101472.94;;;14.18;100.00
71774;BME280;59607;52.130;5.430;2023-08-07T05:52:04;101472.75;;;14.19;100.00
71774;BME280;59607;52.130;5.430;2023-08-07T05:54:35;101467.31;;;14.21;100.00
71774;BME280;59607;52.130;5.430;2023-08-07T05:57:01;101464.16;;;14.26;100.00
71774;BME280;59607;52.130;5.430;2023-08-07T05:59:28;101466.47;;;14.29;100.00
71774;BME280;59607;52.130;5.430;2023-08-07T06:01:57;101465.28;;;14.31;100.00
71774;BME280;59607;52.130;5.430;2023-08-07T06:04:30;101472.88;;;14.35;100.00
71774;BME280;59607;52.130;5.430;2023-08-07T06:06:58;101473.97;;;14.40;100.00
71774;BME280;59607;52.130;5.430;2023-08-07T06:09:31;101470.19;;;14.43;100.00
71774;BME280;59607;52.130;5.430;2023-08-07T06:11:57;101471.66;;;14.46;100.00
71774;BME280;59607;52.130;5.430;2023-08-07T06:14:26;101478.53;;;14.55;100.00
71774;BME280;59607;52.130;5.430;2023-08-07T06:16:53;101485.59;;;14.63;100.00
71774;BME280;59607;52.130;5.430;2023-08-07T06:19:19;101483.88;;;14.70;100.00
71774;BME280;59607;52.130;5.430;2023-08-07T06:21:59;101491.63;;;14.80;100.00
71774;BME280;59607;52.130;5.430;2023-08-07T06:24:26;101494.03;;;14.90;100.00
71774;BME280;59607;52.130;5.430;2023-08-07T06:26:58;101490.63;;;15.04;100.00
71774;BME280;59607;52.130;5.430;2023-08-07T06:29:25;101490.34;;;15.23;100.00
71774;BME280;59607;52.130;5.430;2023-08-07T06:32:03;101488.47;;;15.47;100.00
71774;BME280;59607;52.130;5.430;2023-08-07T06:34:35;101494.91;;;15.67;100.00
71774;BME280;59607;52.130;5.430;2023-08-07T06:37:05;101492.09;;;15.84;100.00
71774;BME280;59607;52.130;5.430;2023-08-07T06:39:31;101498.28;;;15.91;100.00
71774;BME280;59607;52.130;5.430;2023-08-07T06:42:01;101498.09;;;15.93;100.00
71774;BME280;59607;52.130;5.430;2023-08-07T06:44:29;101502.69;;;15.99;100.00
71774;BME280;59607;52.130;5.430;2023-08-07T06:46:56;101509.91;;;16.06;100.00
71774;BME280;59607;52.130;5.430;2023-08-07T06:49:24;101507.97;;;16.14;100.00
71774;BME280;59607;52.130;5.430;2023-08-07T06:51:54;101504.41;;;16.22;100.00
71774;BME280;59607;52.130;5.430;2023-08-07T06:54:24;101500.75;;;16.38;100.00
71774;BME280;59607;52.130;5.430;2023-08-07T06:56:55;101511.00;;;16.63;100.00
71774;BME280;59607;52.130;5.430;2023-08-07T06:59:21;101512.25;;;16.83;100.00
71774;BME280;59607;52.130;5.430;2023-08-07T07:01:48;101512.47;;;17.25;100.00
71774;BME280;59607;52.130;5.430;2023-08-07T07:04:18;101509.44;;;17.57;100.00
71774;BME280;59607;52.130;5.430;2023-08-07T07:06:45;101508.69;;;17.70;100.00
71774;BME280;59607;52.130;5.430;2023-08-07T07:09:18;101530.03;;;17.55;100.00
71774;BME280;59607;52.130;5.430;2023-08-07T07:11:46;101531.13;;;17.38;100.00
71774;BME280;59607;52.130;5.430;2023-08-07T07:14:16;101530.44;;;17.08;100.00
71774;BME280;59607;52.130;5.430;2023-08-07T07:16:48;101538.47;;;16.77;100.00
71774;BME280;59607;52.130;5.430;2023-08-07T07:19:16;101541.34;;;16.61;100.00
71774;BME280;59607;52.130;5.430;2023-08-07T07:21:45;101556.97;;;16.40;100.00
71774;BME280;59607;52.130;5.430;2023-08-07T07:24:14;101551.16;;;16.15;100.00
71774;BME280;59607;52.130;5.430;2023-08-07T07:26:47;101559.56;;;16.19;100.00
71774;BME280;59607;52.130;5.430;2023-08-07T07:29:17;101562.91;;;16.27;100.00
71774;BME280;59607;52.130;5.430;2023-08-07T07:31:49;101561.13;;;16.80;100.00
71774;BME280;59607;52.130;5.430;2023-08-07T07:34:15;101567.69;;;16.84;100.00
71774;BME280;59607;52.130;5.430;2023-08-07T07:36:42;101562.81;;;17.03;100.00
71774;BME280;59607;52.130;5.430;2023-08-07T07:39:08;101561.09;;;17.39;100.00
71774;BME280;59607;52.130;5.430;2023-08-07T07:41:41;101576.75;;;17.56;100.00
71774;BME280;59607;52.130;5.430;2023-08-07T07:44:09;101570.84;;;17.82;100.00
71774;BME280;59607;52.130;5.430;2023-08-07T07:46:42;101574.53;;;18.17;99.31
71774;BME280;59607;52.130;5.430;2023-08-07T07:49:09;101574.72;;;18.44;96.88
71774;BME280;59607;52.130;5.430;2023-08-07T07:51:35;101574.91;;;18.42;97.03
71774;BME280;59607;52.130;5.430;2023-08-07T07:54:07;101567.41;;;18.59;96.31
71774;BME280;59607;52.130;5.430;2023-08-07T07:56:42;101573.28;;;18.48;98.64
71774;BME280;59607;52.130;5.430;2023-08-07T07:59:08;101592.59;;;18.28;98.42
71774;BME280;59607;52.130;5.430;2023-08-07T08:01:35;101581.34;;;17.69;99.63
71774;BME280;59607;52.130;5.430;2023-08-07T08:04:05;101585.06;;;17.24;100.00
71774;BME280;59607;52.130;5.430;2023-08-07T08:06:33;101592.63;;;16.90;100.00
71774;BME280;59607;52.130;5.430;2023-08-07T08:08:59;101607.16;;;16.79;100.00
71774;BME280;59607;52.130;5.430;2023-08-07T08:11:45;101608.28;;;16.70;100.00
71774;BME280;59607;52.130;5.430;2023-08-07T08:14:26;101616.59;;;16.51;100.00
71774;BME280;59607;52.130;5.430;2023-08-07T08:17:09;101615.97;;;16.34;100.00
71774;BME280;59607;52.130;5.430;2023-08-07T08:19:56;101618.97;;;16.31;100.00
71774;BME280;59607;52.130;5.430;2023-08-07T08:22:22;101631.03;;;16.49;100.00
71774;BME280;59607;52.130;5.430;2023-08-07T08:24:49;101620.25;;;16.65;100.00
71774;BME280;59607;52.130;5.430;2023-08-07T08:27:19;101627.09;;;16.75;100.00
71774;BME280;59607;52.130;5.430;2023-08-07T08:29:46;101622.88;;;16.81;100.00
71774;BME280;59607;52.130;5.430;2023-08-07T08:32:12;101629.28;;;17.23;100.00
71774;BME280;59607;52.130;5.430;2023-08-07T08:34:42;101618.13;;;17.50;98.76
71774;BME280;59607;52.130;5.430;2023-08-07T08:37:12;101626.97;;;17.57;98.00
71774;BME280;59607;52.130;5.430;2023-08-07T08:39:39;101622.28;;;17.59;96.99
71774;BME280;59607;52.130;5.430;2023-08-07T08:42:15;101626.97;;;17.79;96.51
71774;BME280;59607;52.130;5.430;2023-08-07T08:44:51;101626.97;;;18.08;92.86
71774;BME280;59607;52.130;5.430;2023-08-07T08:47:25;101619.91;;;18.50;89.81
71774;BME280;59607;52.130;5.430;2023-08-07T08:50:10;101620.00;;;18.78;86.08
71774;BME280;59607;52.130;5.430;2023-08-07T08:52:41;101634.31;;;18.34;82.42
71774;BME280;59607;52.130;5.430;2023-08-07T09:44:20;101666.78;;;18.72;80.49
71774;BME280;59607;52.130;5.430;2023-08-07T09:46:47;101675.34;;;18.67;78.03
71774;BME280;59607;52.130;5.430;2023-08-07T09:49:16;101675.28;;;18.54;80.83
71774;BME280;59607;52.130;5.430;2023-08-07T09:51:49;101677.03;;;18.40;78.81
71774;BME280;59607;52.130;5.430;2023-08-07T09:54:20;101687.25;;;18.43;79.36
71774;BME280;59607;52.130;5.430;2023-08-07T09:56:46;101688.78;;;18.52;80.39
71774;BME280;59607;52.130;5.430;2023-08-07T09:59:14;101690.88;;;18.64;79.79
71774;BME280;59607;52.130;5.430;2023-08-07T10:01:41;101694.72;;;19.03;79.45
71774;BME280;59607;52.130;5.430;2023-08-07T10:04:13;101694.00;;;19.16;77.53
71774;BME280;59607;52.130;5.430;2023-08-07T10:06:43;101704.41;;;19.11;74.92
71774;BME280;59607;52.130;5.430;2023-08-07T10:09:15;101699.81;;;18.91;74.48
71774;BME280;59607;52.130;5.430;2023-08-07T10:11:44;101712.03;;;18.85;75.77
71774;BME280;59607;52.130;5.430;2023-08-07T10:14:28;101715.53;;;18.86;75.75
71774;BME280;59607;52.130;5.430;2023-08-07T10:17:01;101710.25;;;18.93;76.72
71774;BME280;59607;52.130;5.430;2023-08-07T10:19:28;101709.69;;;19.04;76.72
71774;BME280;59607;52.130;5.430;2023-08-07T10:22:11;101705.47;;;19.30;75.64
71774;BME280;59607;52.130;5.430;2023-08-07T10:24:43;101701.44;;;19.41;74.93
71774;BME280;59607;52.130;5.430;2023-08-07T10:27:12;101711.81;;;19.29;75.05
71774;BME280;59607;52.130;5.430;2023-08-07T10:29:41;101708.97;;;19.31;75.93
71774;BME280;59607;52.130;5.430;2023-08-07T10:32:11;101697.50;;;19.23;74.42
71774;BME280;59607;52.130;5.430;2023-08-07T10:34:38;101705.94;;;19.41;73.85
71774;BME280;59607;52.130;5.430;2023-08-07T10:37:45;101710.88;;;19.71;73.13
71774;BME280;59607;52.130;5.430;2023-08-07T10:40:12;101709.31;;;20.17;69.99
71774;BME280;59607;52.130;5.430;2023-08-07T10:45:22;101706.22;;;20.34;68.68
71774;BME280;59607;52.130;5.430;2023-08-07T10:48:01;101716.88;;;19.87;71.20
71774;BME280;59607;52.130;5.430;2023-08-07T10:50:48;101717.22;;;19.56;71.76
71774;BME280;59607;52.130;5.430;2023-08-07T10:53:28;101709.25;;;19.63;71.07
71774;BME280;59607;52.130;5.430;2023-08-07T10:55:55;101719.53;;;19.87;69.77
71774;BME280;59607;52.130;5.430;2023-08-07T10:58:49;101709.69;;;20.34;69.00
71774;BME280;59607;52.130;5.430;2023-08-07T11:01:51;101712.03;;;20.90;66.29
71774;BME280;59607;52.130;5.430;2023-08-07T11:04:18;101717.81;;;20.74;65.20
71774;BME280;59607;52.130;5.430;2023-08-07T11:06:48;101717.06;;;20.32;65.68
71774;BME280;59607;52.130;5.430;2023-08-07T11:09:18;101718.91;;;19.98;67.92
71774;BME280;59607;52.130;5.430;2023-08-07T11:11:51;101723.59;;;19.62;67.81
71774;BME280;59607;52.130;5.430;2023-08-07T11:14:19;101743.75;;;19.29;67.86
71774;BME280;59607;52.130;5.430;2023-08-07T11:16:48;101740.16;;;19.57;70.39
71774;BME280;59607;52.130;5.430;2023-08-07T11:19:17;101731.56;;;19.62;68.14
71774;BME280;59607;52.130;5.430;2023-08-07T11:21:48;101742.81;;;19.71;67.89
71774;BME280;59607;52.130;5.430;2023-08-07T11:24:17;101743.03;;;19.69;67.62
71774;BME280;59607;52.130;5.430;2023-08-07T11:26:46;101752.84;;;19.55;66.23
71774;BME280;59607;52.130;5.430;2023-08-07T11:29:26;101747.72;;;19.54;69.71
71774;BME280;59607;52.130;5.430;2023-08-07T11:32:01;101735.53;;;20.14;67.70
71774;BME280;59607;52.130;5.430;2023-08-07T11:34:28;101741.66;;;20.48;65.52
71774;BME280;59607;52.130;5.430;2023-08-07T11:36:58;101736.75;;;20.45;65.41
71774;BME280;59607;52.130;5.430;2023-08-07T11:39:25;101745.38;;;20.40;64.91
71774;BME280;59607;52.130;5.430;2023-08-07T11:41:52;101745.50;;;20.79;64.95
71774;BME280;59607;52.130;5.430;2023-08-07T11:44:22;101749.91;;;21.19;63.50
71774;BME280;59607;52.130;5.430;2023-08-07T11:46:50;101750.22;;;21.37;62.54
71774;BME280;59607;52.130;5.430;2023-08-07T11:49:18;101741.53;;;21.48;60.40
71774;BME280;59607;52.130;5.430;2023-08-07T11:52:01;101742.22;;;21.37;60.76
71774;BME280;59607;52.130;5.430;2023-08-07T11:54:34;101738.09;;;21.41;59.82
71774;BME280;59607;52.130;5.430;2023-08-07T11:57:01;101730.53;;;21.70;59.63
71774;BME280;59607;52.130;5.430;2023-08-07T11:59:28;101732.53;;;21.81;59.04
71774;BME280;59607;52.130;5.430;2023-08-07T12:02:09;101739.28;;;21.84;59.90
71774;BME280;59607;52.130;5.430;2023-08-07T12:04:40;101737.00;;;21.88;59.23
71774;BME280;59607;52.130;5.430;2023-08-07T12:07:07;101729.78;;;21.88;58.83
71774;BME280;59607;52.130;5.430;2023-08-07T12:09:44;101727.63;;;22.04;57.87
71774;BME280;59607;52.130;5.430;2023-08-07T12:12:11;101728.28;;;21.99;57.59
71774;BME280;59607;52.130;5.430;2023-08-07T12:14:46;101723.69;;;22.06;57.59
71774;BME280;59607;52.130;5.430;2023-08-07T12:17:12;101717.66;;;22.18;55.00
71774;BME280;59607;52.130;5.430;2023-08-07T12:19:44;101731.38;;;22.22;55.21
71774;BME280;59607;52.130;5.430;2023-08-07T12:22:21;101723.78;;;22.44;55.67
71774;BME280;59607;52.130;5.430;2023-08-07T12:24:51;101723.16;;;22.67;56.09
71774;BME280;59607;52.130;5.430;2023-08-07T12:27:18;101734.44;;;22.25;54.31
71774;BME280;59607;52.130;5.430;2023-08-07T12:29:54;101737.69;;;21.76;55.34
71774;BME280;59607;52.130;5.430;2023-08-07T12:32:21;101732.63;;;22.19;55.11
71774;BME280;59607;52.130;5.430;2023-08-07T12:34:47;101741.38;;;22.08;52.96
71774;BME280;59607;52.130;5.430;2023-08-07T12:37:38;101735.31;;;21.93;53.45
71774;BME280;59607;52.130;5.430;2023-08-07T12:40:05;101733.19;;;21.70;52.48
71774;BME280;59607;52.130;5.430;2023-08-07T12:42:54;101735.31;;;21.93;51.54
71774;BME280;59607;52.130;5.430;2023-08-07T12:45:25;101741.09;;;22.16;51.37
71774;BME280;59607;52.130;5.430;2023-08-07T12:47:58;101733.41;;;22.45;51.01
71774;BME280;59607;52.130;5.430;2023-08-07T12:50:31;101742.97;;;22.34;50.58
71774;BME280;59607;52.130;5.430;2023-08-07T12:52:58;101736.53;;;22.42;48.48
71774;BME280;59607;52.130;5.430;2023-08-07T12:55:30;101730.63;;;22.14;48.60
71774;BME280;59607;52.130;5.430;2023-08-07T12:57:57;101736.41;;;22.37;49.71
71774;BME280;59607;52.130;5.430;2023-08-07T13:00:27;101733.91;;;22.16;50.18
71774;BME280;59607;52.130;5.430;2023-08-07T13:02:58;101736.78;;;22.15;50.10
71774;BME280;59607;52.130;5.430;2023-08-07T13:05:30;101731.28;;;22.10;49.75
71774;BME280;59607;52.130;5.430;2023-08-07T13:08:04;101735.88;;;21.70;50.09
71774;BME280;59607;52.130;5.430;2023-08-07T13:10:45;101741.91;;;21.58;51.08
71774;BME280;59607;52.130;5.430;2023-08-07T13:13:15;101736.84;;;21.82;52.10
71774;BME280;59607;52.130;5.430;2023-08-07T13:15:44;101741.97;;;22.10;49.85
71774;BME280;59607;52.130;5.430;2023-08-07T13:18:14;101745.94;;;22.26;49.79
71774;BME280;59607;52.130;5.430;2023-08-07T13:20:44;101732.75;;;22.50;49.05
71774;BME280;59607;52.130;5.430;2023-08-07T13:23:11;101733.50;;;22.57;48.72
71774;BME280;59607;52.130;5.430;2023-08-07T13:25:38;101742.09;;;22.40;49.33
71774;BME280;59607;52.130;5.430;2023-08-07T13:28:08;101740.41;;;22.46;47.85
71774;BME280;59607;52.130;5.430;2023-08-07T13:30:34;101744.03;;;22.52;48.75
71774;BME280;59607;52.130;5.430;2023-08-07T13:33:03;101756.34;;;22.78;48.24
71774;BME280;59607;52.130;5.430;2023-08-07T13:35:32;101755.31;;;22.98;48.42
71774;BME280;59607;52.130;5.430;2023-08-07T13:37:59;101748.50;;;22.84;48.24
71774;BME280;59607;52.130;5.430;2023-08-07T13:40:31;101740.75;;;22.94;49.50
71774;BME280;59607;52.130;5.430;2023-08-07T13:43:00;101750.94;;;22.85;48.92
71774;BME280;59607;52.130;5.430;2023-08-07T13:45:47;101755.25;;;22.67;47.32
71774;BME280;59607;52.130;5.430;2023-08-07T13:48:23;101757.25;;;22.72;47.52
71774;BME280;59607;52.130;5.430;2023-08-07T13:50:53;101764.16;;;22.80;47.75
71774;BME280;59607;52.130;5.430;2023-08-07T13:53:22;101759.31;;;22.70;46.92
71774;BME280;59607;52.130;5.430;2023-08-07T13:55:54;101765.22;;;22.09;49.40
71774;BME280;59607;52.130;5.430;2023-08-07T13:58:25;101767.69;;;21.78;49.81
71774;BME280;59607;52.130;5.430;2023-08-07T14:00:51;101767.50;;;21.66;50.67
71774;BME280;59607;52.130;5.430;2023-08-07T14:03:24;101780.66;;;21.68;50.53
71774;BME280;59607;52.130;5.430;2023-08-07T14:05:58;101763.53;;;21.82;50.04
71774;BME280;59607;52.130;5.430;2023-08-07T14:08:28;101771.63;;;22.01;49.14
71774;BME280;59607;52.130;5.430;2023-08-07T14:10:58;101751.38;;;22.38;47.47
71774;BME280;59607;52.130;5.430;2023-08-07T14:13:24;101757.19;;;22.35;47.94
71774;BME280;59607;52.130;5.430;2023-08-07T14:16:08;101777.34;;;22.05;48.16
71774;BME280;59607;52.130;5.430;2023-08-07T14:18:38;101770.84;;;21.94;48.63
71774;BME280;59607;52.130;5.430;2023-08-07T14:21:04;101768.38;;;21.99;49.54
71774;BME280;59607;52.130;5.430;2023-08-07T14:23:41;101768.09;;;22.08;49.11
71774;BME280;59607;52.130;5.430;2023-08-07T14:26:12;101776.16;;;22.01;49.18
71774;BME280;59607;52.130;5.430;2023-08-07T14:28:39;101778.16;;;21.73;48.43
71774;BME280;59607;52.130;5.430;2023-08-07T14:31:09;101788.25;;;21.25;49.69
71774;BME280;59607;52.130;5.430;2023-08-07T14:33:39;101779.31;;;21.52;50.36
71774;BME280;59607;52.130;5.430;2023-08-07T14:36:11;101790.06;;;21.77;49.16
71774;BME280;59607;52.130;5.430;2023-08-07T14:38:37;101782.06;;;21.70;48.39
71774;BME280;59607;52.130;5.430;2023-08-07T14:41:11;101782.91;;;21.64;50.36
71774;BME280;59607;52.130;5.430;2023-08-07T14:43:37;101777.78;;;21.63;49.88
71774;BME280;59607;52.130;5.430;2023-08-07T14:46:08;101783.28;;;21.36;51.31
71774;BME280;59607;52.130;5.430;2023-08-07T14:48:35;101791.53;;;21.20;50.51
71774;BME280;59607;52.130;5.430;2023-08-07T14:51:02;101776.97;;;21.23;50.78
71774;BME280;59607;52.130;5.430;2023-08-07T14:53:38;101793.44;;;21.13;49.67
71774;BME280;59607;52.130;5.430;2023-08-07T14:56:04;101786.59;;;21.24;49.67
71774;BME280;59607;52.130;5.430;2023-08-07T14:58:30;101782.91;;;21.25;50.30
71774;BME280;59607;52.130;5.430;2023-08-07T15:01:01;101793.03;;;21.10;50.17